sensor_id;sensor_type;location;lat;lon;timestamp;P1;durP1;ratioP1;P2;durP2;ratioP2
52586;SDS011;38480;52.724;6.436;2022-09-09T00:01:58;17.33;;;9.53;;
52586;SDS011;38480;52.724;6.436;2022-09-09T00:04:35;13.80;;;9.50;;
52586;SDS011;38480;52.724;6.436;2022-09-09T00:07:06;19.47;;;10.87;;
52586;SDS011;38480;52.724;6.436;2022-09-09T00:09:40;12.13;;;6.93;;
52586;SDS011;38480;52.724;6.436;2022-09-09T00:12:33;20.60;;;8.30;;
52586;SDS011;38480;52.724;6.436;2022-09-09T00:15:02;14.90;;;10.13;;
52586;SDS011;38480;52.724;6.436;2022-09-09T00:20:19;13.47;;;6.50;;
52586;SDS011;38480;52.724;6.436;2022-09-09T00:25:37;17.47;;;10.23;;
52586;SDS011;38480;52.724;6.436;2022-09-09T00:28:13;16.45;;;9.50;;
52586;SDS011;38480;52.724;6.436;2022-09-09T00:30:42;15.47;;;9.37;;
52586;SDS011;38480;52.724;6.436;2022-09-09T00:33:12;18.77;;;10.03;;
52586;SDS011;38480;52.724;6.436;2022-09-09T00:35:50;15.10;;;9.67;;
52586;SDS011;38480;52.724;6.436;2022-09-09T00:38:19;18.53;;;10.13;;
52586;SDS011;38480;52.724;6.436;2022-09-09T00:43:30;13.30;;;8.53;;
52586;SDS011;38480;52.724;6.436;2022-09-09T00:46:00;14.97;;;9.63;;
52586;SDS011;38480;52.724;6.436;2022-09-09T00:48:54;19.30;;;8.60;;
52586;SDS011;38480;52.724;6.436;2022-09-09T00:51:22;17.87;;;8.97;;
52586;SDS011;38480;52.724;6.436;2022-09-09T00:56:20;15.87;;;8.93;;
52586;SDS011;38480;52.724;6.436;2022-09-09T00:59:00;14.93;;;8.80;;
52586;SDS011;38480;52.724;6.436;2022-09-09T01:01:31;16.77;;;9.15;;
52586;SDS011;38480;52.724;6.436;2022-09-09T01:03:57;16.23;;;8.37;;
52586;SDS011;38480;52.724;6.436;2022-09-09T01:06:30;13.33;;;7.60;;
52586;SDS011;38480;52.724;6.436;2022-09-09T01:27:01;62.50;;;10.30;;
52586;SDS011;38480;52.724;6.436;2022-09-09T01:29:28;53.27;;;9.80;;
52586;SDS011;38480;52.724;6.436;2022-09-09T01:31:55;68.53;;;11.10;;
52586;SDS011;38480;52.724;6.436;2022-09-09T01:34:22;50.03;;;11.73;;
52586;SDS011;38480;52.724;6.436;2022-09-09T01:36:59;51.33;;;11.27;;
52586;SDS011;38480;52.724;6.436;2022-09-09T01:39:26;30.73;;;10.83;;
52586;SDS011;38480;52.724;6.436;2022-09-09T01:41:53;26.83;;;10.53;;
52586;SDS011;38480;52.724;6.436;2022-09-09T01:44:20;28.47;;;10.83;;
52586;SDS011;38480;52.724;6.436;2022-09-09T01:46:47;23.63;;;9.90;;
52586;SDS011;38480;52.724;6.436;2022-09-09T01:49:13;37.07;;;12.63;;
52586;SDS011;38480;52.724;6.436;2022-09-09T01:51:39;29.50;;;12.03;;
52586;SDS011;38480;52.724;6.436;2022-09-09T01:54:06;27.00;;;12.67;;
52586;SDS011;38480;52.724;6.436;2022-09-09T01:59:12;20.33;;;9.87;;
52586;SDS011;38480;52.724;6.436;2022-09-09T02:04:13;17.10;;;9.57;;
52586;SDS011;38480;52.724;6.436;2022-09-09T02:06:44;23.00;;;11.67;;
52586;SDS011;38480;52.724;6.436;2022-09-09T02:09:11;30.53;;;13.47;;
52586;SDS011;38480;52.724;6.436;2022-09-09T02:11:38;25.77;;;12.43;;
52586;SDS011;38480;52.724;6.436;2022-09-09T02:14:08;18.70;;;9.87;;
52586;SDS011;38480;52.724;6.436;2022-09-09T02:16:47;24.17;;;11.73;;
52586;SDS011;38480;52.724;6.436;2022-09-09T02:19:18;28.70;;;12.87;;
52586;SDS011;38480;52.724;6.436;2022-09-09T02:21:50;26.17;;;12.90;;
52586;SDS011;38480;52.724;6.436;2022-09-09T02:24:18;25.53;;;11.37;;
52586;SDS011;38480;52.724;6.436;2022-09-09T02:26:44;27.43;;;13.80;;
52586;SDS011;38480;52.724;6.436;2022-09-09T02:29:15;24.83;;;12.70;;
52586;SDS011;38480;52.724;6.436;2022-09-09T02:31:42;27.90;;;12.87;;
52586;SDS011;38480;52.724;6.436;2022-09-09T02:34:10;20.10;;;10.43;;
52586;SDS011;38480;52.724;6.436;2022-09-09T02:36:36;25.23;;;13.10;;
52586;SDS011;38480;52.724;6.436;2022-09-09T02:39:05;17.90;;;11.40;;
52586;SDS011;38480;52.724;6.436;2022-09-09T02:41:33;29.33;;;13.93;;
52586;SDS011;38480;52.724;6.436;2022-09-09T02:44:00;34.33;;;15.23;;
52586;SDS011;38480;52.724;6.436;2022-09-09T02:47:13;27.10;;;14.27;;
52586;SDS011;38480;52.724;6.436;2022-09-09T02:49:27;34.67;;;15.37;;
52586;SDS011;38480;52.724;6.436;2022-09-09T02:51:59;32.77;;;15.87;;
52586;SDS011;38480;52.724;6.436;2022-09-09T02:54:27;25.50;;;14.93;;
52586;SDS011;38480;52.724;6.436;2022-09-09T02:57:00;33.67;;;16.40;;
52586;SDS011;38480;52.724;6.436;2022-09-09T02:59:27;29.97;;;17.27;;
52586;SDS011;38480;52.724;6.436;2022-09-09T03:01:54;35.77;;;18.17;;
52586;SDS011;38480;52.724;6.436;2022-09-09T03:04:20;28.93;;;16.77;;
52586;SDS011;38480;52.724;6.436;2022-09-09T03:06:46;34.83;;;18.07;;
52586;SDS011;38480;52.724;6.436;2022-09-09T03:09:12;54.10;;;22.33;;
52586;SDS011;38480;52.724;6.436;2022-09-09T03:11:38;33.97;;;17.37;;
52586;SDS011;38480;52.724;6.436;2022-09-09T03:14:04;42.20;;;20.87;;
52586;SDS011;38480;52.724;6.436;2022-09-09T03:16:31;34.53;;;17.30;;
52586;SDS011;38480;52.724;6.436;2022-09-09T03:18:59;40.73;;;19.07;;
52586;SDS011;38480;52.724;6.436;2022-09-09T03:21:25;27.47;;;16.23;;
52586;SDS011;38480;52.724;6.436;2022-09-09T03:23:51;30.37;;;16.30;;
52586;SDS011;38480;52.724;6.436;2022-09-09T03:26:17;34.97;;;15.53;;
52586;SDS011;38480;52.724;6.436;2022-09-09T03:28:43;29.30;;;16.03;;
52586;SDS011;38480;52.724;6.436;2022-09-09T03:31:10;30.67;;;16.33;;
52586;SDS011;38480;52.724;6.436;2022-09-09T03:33:36;27.90;;;13.97;;
52586;SDS011;38480;52.724;6.436;2022-09-09T03:36:03;28.57;;;13.77;;
52586;SDS011;38480;52.724;6.436;2022-09-09T03:38:29;32.13;;;15.77;;
52586;SDS011;38480;52.724;6.436;2022-09-09T03:40:56;23.07;;;13.40;;
52586;SDS011;38480;52.724;6.436;2022-09-09T03:43:23;32.43;;;16.20;;
52586;SDS011;38480;52.724;6.436;2022-09-09T03:45:50;32.07;;;16.10;;
52586;SDS011;38480;52.724;6.436;2022-09-09T03:48:16;31.83;;;15.63;;
52586;SDS011;38480;52.724;6.436;2022-09-09T03:50:50;29.23;;;14.57;;
52586;SDS011;38480;52.724;6.436;2022-09-09T03:55:53;44.13;;;17.43;;
52586;SDS011;38480;52.724;6.436;2022-09-09T03:58:20;33.40;;;15.40;;
52586;SDS011;38480;52.724;6.436;2022-09-09T04:00:53;33.60;;;15.63;;
52586;SDS011;38480;52.724;6.436;2022-09-09T04:03:19;37.17;;;17.05;;
52586;SDS011;38480;52.724;6.436;2022-09-09T04:05:48;40.90;;;16.77;;
52586;SDS011;38480;52.724;6.436;2022-09-09T04:08:14;40.80;;;18.43;;
52586;SDS011;38480;52.724;6.436;2022-09-09T04:10:40;37.40;;;17.47;;
52586;SDS011;38480;52.724;6.436;2022-09-09T04:13:07;41.43;;;18.97;;
52586;SDS011;38480;52.724;6.436;2022-09-09T04:15:33;36.90;;;18.37;;
52586;SDS011;38480;52.724;6.436;2022-09-09T04:17:59;35.03;;;17.43;;
52586;SDS011;38480;52.724;6.436;2022-09-09T04:20:25;34.93;;;17.10;;
52586;SDS011;38480;52.724;6.436;2022-09-09T04:22:51;35.03;;;17.50;;
52586;SDS011;38480;52.724;6.436;2022-09-09T04:25:17;36.43;;;18.27;;
52586;SDS011;38480;52.724;6.436;2022-09-09T04:27:44;38.70;;;18.17;;
52586;SDS011;38480;52.724;6.436;2022-09-09T04:30:10;34.53;;;18.07;;
52586;SDS011;38480;52.724;6.436;2022-09-09T04:32:37;33.43;;;16.20;;
52586;SDS011;38480;52.724;6.436;2022-09-09T04:35:03;44.07;;;19.97;;
52586;SDS011;38480;52.724;6.436;2022-09-09T04:37:29;33.60;;;16.10;;
52586;SDS011;38480;52.724;6.436;2022-09-09T04:39:55;41.03;;;19.47;;
52586;SDS011;38480;52.724;6.436;2022-09-09T04:42:21;35.37;;;17.97;;
52586;SDS011;38480;52.724;6.436;2022-09-09T04:44:47;39.07;;;18.80;;
52586;SDS011;38480;52.724;6.436;2022-09-09T04:47:13;39.93;;;19.77;;
52586;SDS011;38480;52.724;6.436;2022-09-09T04:49:40;46.37;;;20.33;;
52586;SDS011;38480;52.724;6.436;2022-09-09T04:52:06;37.93;;;19.73;;
52586;SDS011;38480;52.724;6.436;2022-09-09T04:54:32;41.17;;;19.80;;
52586;SDS011;38480;52.724;6.436;2022-09-09T04:56:58;39.83;;;19.57;;
52586;SDS011;38480;52.724;6.436;2022-09-09T04:59:24;45.20;;;20.93;;
52586;SDS011;38480;52.724;6.436;2022-09-09T05:01:50;36.40;;;19.23;;
52586;SDS011;38480;52.724;6.436;2022-09-09T05:04:16;36.47;;;19.27;;
52586;SDS011;38480;52.724;6.436;2022-09-09T05:06:43;37.93;;;18.80;;
52586;SDS011;38480;52.724;6.436;2022-09-09T05:09:10;38.10;;;18.80;;
52586;SDS011;38480;52.724;6.436;2022-09-09T05:11:36;35.33;;;17.33;;
52586;SDS011;38480;52.724;6.436;2022-09-09T05:14:03;47.33;;;20.83;;
52586;SDS011;38480;52.724;6.436;2022-09-09T05:16:29;41.17;;;19.33;;
52586;SDS011;38480;52.724;6.436;2022-09-09T05:18:56;41.97;;;19.93;;
52586;SDS011;38480;52.724;6.436;2022-09-09T05:21:23;35.40;;;16.60;;
52586;SDS011;38480;52.724;6.436;2022-09-09T05:23:53;34.07;;;18.03;;
52586;SDS011;38480;52.724;6.436;2022-09-09T05:26:20;41.90;;;19.03;;
52586;SDS011;38480;52.724;6.436;2022-09-09T05:28:49;38.20;;;18.73;;
52586;SDS011;38480;52.724;6.436;2022-09-09T05:31:15;47.83;;;19.63;;
52586;SDS011;38480;52.724;6.436;2022-09-09T05:33:43;38.70;;;19.37;;
52586;SDS011;38480;52.724;6.436;2022-09-09T05:36:14;56.17;;;23.07;;
52586;SDS011;38480;52.724;6.436;2022-09-09T05:38:41;49.30;;;21.70;;
52586;SDS011;38480;52.724;6.436;2022-09-09T05:41:08;40.97;;;20.20;;
52586;SDS011;38480;52.724;6.436;2022-09-09T05:43:36;36.40;;;18.57;;
52586;SDS011;38480;52.724;6.436;2022-09-09T05:46:04;38.33;;;17.80;;
52586;SDS011;38480;52.724;6.436;2022-09-09T05:48:31;33.47;;;16.93;;
52586;SDS011;38480;52.724;6.436;2022-09-09T05:50:57;40.60;;;19.20;;
52586;SDS011;38480;52.724;6.436;2022-09-09T05:53:24;30.10;;;16.27;;
52586;SDS011;38480;52.724;6.436;2022-09-09T05:55:50;37.60;;;18.67;;
52586;SDS011;38480;52.724;6.436;2022-09-09T05:58:16;42.73;;;18.87;;
52586;SDS011;38480;52.724;6.436;2022-09-09T06:00:42;43.27;;;18.57;;
52586;SDS011;38480;52.724;6.436;2022-09-09T06:03:12;33.77;;;17.20;;
52586;SDS011;38480;52.724;6.436;2022-09-09T06:05:38;32.73;;;17.27;;
52586;SDS011;38480;52.724;6.436;2022-09-09T06:08:04;43.60;;;19.17;;
52586;SDS011;38480;52.724;6.436;2022-09-09T06:10:30;36.20;;;17.83;;
52586;SDS011;38480;52.724;6.436;2022-09-09T06:12:56;33.87;;;17.83;;
52586;SDS011;38480;52.724;6.436;2022-09-09T06:15:22;31.73;;;16.93;;
52586;SDS011;38480;52.724;6.436;2022-09-09T06:17:53;32.67;;;17.37;;
52586;SDS011;38480;52.724;6.436;2022-09-09T06:20:20;30.27;;;15.90;;
52586;SDS011;38480;52.724;6.436;2022-09-09T06:22:46;32.43;;;15.83;;
52586;SDS011;38480;52.724;6.436;2022-09-09T06:25:13;39.53;;;17.70;;
52586;SDS011;38480;52.724;6.436;2022-09-09T06:27:40;28.27;;;14.97;;
52586;SDS011;38480;52.724;6.436;2022-09-09T06:30:07;40.40;;;18.40;;
52586;SDS011;38480;52.724;6.436;2022-09-09T06:32:33;41.97;;;19.13;;
52586;SDS011;38480;52.724;6.436;2022-09-09T06:35:00;22.20;;;13.47;;
52586;SDS011;38480;52.724;6.436;2022-09-09T06:37:26;31.87;;;16.23;;
52586;SDS011;38480;52.724;6.436;2022-09-09T06:39:52;32.17;;;16.53;;
52586;SDS011;38480;52.724;6.436;2022-09-09T06:42:19;27.53;;;13.87;;
52586;SDS011;38480;52.724;6.436;2022-09-09T06:44:45;25.67;;;14.93;;
52586;SDS011;38480;52.724;6.436;2022-09-09T06:47:12;28.33;;;13.70;;
52586;SDS011;38480;52.724;6.436;2022-09-09T06:49:38;21.57;;;12.50;;
52586;SDS011;38480;52.724;6.436;2022-09-09T06:52:04;33.00;;;16.13;;
52586;SDS011;38480;52.724;6.436;2022-09-09T06:54:30;25.37;;;13.67;;
52586;SDS011;38480;52.724;6.436;2022-09-09T06:57:01;27.60;;;13.70;;
52586;SDS011;38480;52.724;6.436;2022-09-09T06:59:27;24.57;;;12.70;;
52586;SDS011;38480;52.724;6.436;2022-09-09T07:01:55;27.73;;;14.13;;
52586;SDS011;38480;52.724;6.436;2022-09-09T07:04:21;23.10;;;13.17;;
52586;SDS011;38480;52.724;6.436;2022-09-09T07:06:47;17.83;;;11.53;;
52586;SDS011;38480;52.724;6.436;2022-09-09T07:09:15;18.67;;;11.93;;
52586;SDS011;38480;52.724;6.436;2022-09-09T07:11:42;18.20;;;11.57;;
52586;SDS011;38480;52.724;6.436;2022-09-09T07:14:08;23.10;;;11.47;;
52586;SDS011;38480;52.724;6.436;2022-09-09T07:16:37;17.23;;;11.07;;
52586;SDS011;38480;52.724;6.436;2022-09-09T07:19:04;19.33;;;11.63;;
52586;SDS011;38480;52.724;6.436;2022-09-09T07:21:30;18.27;;;11.20;;
52586;SDS011;38480;52.724;6.436;2022-09-09T07:23:57;21.20;;;11.63;;
52586;SDS011;38480;52.724;6.436;2022-09-09T07:26:25;20.37;;;11.33;;
52586;SDS011;38480;52.724;6.436;2022-09-09T07:28:51;13.30;;;9.37;;
52586;SDS011;38480;52.724;6.436;2022-09-09T07:31:19;23.87;;;12.83;;
52586;SDS011;38480;52.724;6.436;2022-09-09T07:33:46;21.50;;;11.00;;
52586;SDS011;38480;52.724;6.436;2022-09-09T07:36:20;12.87;;;10.17;;
52586;SDS011;38480;52.724;6.436;2022-09-09T07:38:48;19.67;;;10.53;;
52586;SDS011;38480;52.724;6.436;2022-09-09T07:41:17;17.37;;;10.30;;
52586;SDS011;38480;52.724;6.436;2022-09-09T07:43:45;18.97;;;9.67;;
52586;SDS011;38480;52.724;6.436;2022-09-09T07:46:12;13.90;;;8.70;;
52586;SDS011;38480;52.724;6.436;2022-09-09T07:48:43;14.60;;;9.13;;
52586;SDS011;38480;52.724;6.436;2022-09-09T07:51:11;18.63;;;9.17;;
52586;SDS011;38480;52.724;6.436;2022-09-09T07:53:39;15.60;;;8.63;;
52586;SDS011;38480;52.724;6.436;2022-09-09T07:56:06;21.20;;;9.10;;
52586;SDS011;38480;52.724;6.436;2022-09-09T07:58:36;14.53;;;8.70;;
52586;SDS011;38480;52.724;6.436;2022-09-09T08:01:06;21.23;;;9.73;;
52586;SDS011;38480;52.724;6.436;2022-09-09T08:03:32;14.87;;;7.43;;
52586;SDS011;38480;52.724;6.436;2022-09-09T08:06:02;17.83;;;7.93;;
52586;SDS011;38480;52.724;6.436;2022-09-09T08:08:29;14.30;;;7.03;;
52586;SDS011;38480;52.724;6.436;2022-09-09T08:11:01;13.43;;;6.80;;
52586;SDS011;38480;52.724;6.436;2022-09-09T08:13:27;15.65;;;7.03;;
52586;SDS011;38480;52.724;6.436;2022-09-09T08:15:53;13.50;;;6.13;;
52586;SDS011;38480;52.724;6.436;2022-09-09T08:18:19;16.03;;;6.30;;
52586;SDS011;38480;52.724;6.436;2022-09-09T08:20:45;16.17;;;6.93;;
52586;SDS011;38480;52.724;6.436;2022-09-09T08:23:11;12.80;;;6.17;;
52586;SDS011;38480;52.724;6.436;2022-09-09T08:25:37;9.67;;;5.30;;
52586;SDS011;38480;52.724;6.436;2022-09-09T08:28:03;9.37;;;4.97;;
52586;SDS011;38480;52.724;6.436;2022-09-09T08:30:29;13.27;;;4.90;;
52586;SDS011;38480;52.724;6.436;2022-09-09T08:32:55;13.37;;;5.13;;
52586;SDS011;38480;52.724;6.436;2022-09-09T08:35:21;13.10;;;4.10;;
52586;SDS011;38480;52.724;6.436;2022-09-09T08:37:47;10.23;;;4.27;;
52586;SDS011;38480;52.724;6.436;2022-09-09T08:40:18;11.73;;;3.97;;
52586;SDS011;38480;52.724;6.436;2022-09-09T08:42:47;12.02;;;4.20;;
52586;SDS011;38480;52.724;6.436;2022-09-09T08:47:47;12.90;;;4.57;;
52586;SDS011;38480;52.724;6.436;2022-09-09T08:50:19;12.80;;;4.20;;
52586;SDS011;38480;52.724;6.436;2022-09-09T08:57:58;9.70;;;3.83;;
52586;SDS011;38480;52.724;6.436;2022-09-09T09:06:10;7.87;;;3.40;;
52586;SDS011;38480;52.724;6.436;2022-09-09T09:08:41;8.77;;;3.63;;
52586;SDS011;38480;52.724;6.436;2022-09-09T09:11:10;12.90;;;3.83;;
52586;SDS011;38480;52.724;6.436;2022-09-09T09:13:51;11.27;;;3.60;;
52586;SDS011;38480;52.724;6.436;2022-09-09T09:16:25;11.27;;;3.70;;
52586;SDS011;38480;52.724;6.436;2022-09-09T09:18:52;10.17;;;3.30;;
52586;SDS011;38480;52.724;6.436;2022-09-09T09:21:34;7.70;;;3.47;;
52586;SDS011;38480;52.724;6.436;2022-09-09T09:24:02;14.57;;;4.57;;
52586;SDS011;38480;52.724;6.436;2022-09-09T09:26:32;8.67;;;2.93;;
52586;SDS011;38480;52.724;6.436;2022-09-09T09:29:00;9.97;;;3.47;;
52586;SDS011;38480;52.724;6.436;2022-09-09T09:31:28;9.50;;;2.50;;
52586;SDS011;38480;52.724;6.436;2022-09-09T09:33:54;9.00;;;2.80;;
52586;SDS011;38480;52.724;6.436;2022-09-09T09:36:23;11.43;;;2.70;;
52586;SDS011;38480;52.724;6.436;2022-09-09T09:38:57;8.13;;;2.37;;
52586;SDS011;38480;52.724;6.436;2022-09-09T09:41:28;8.97;;;2.83;;
52586;SDS011;38480;52.724;6.436;2022-09-09T09:43:55;9.67;;;2.13;;
52586;SDS011;38480;52.724;6.436;2022-09-09T09:46:22;10.20;;;2.43;;
52586;SDS011;38480;52.724;6.436;2022-09-09T09:49:04;9.63;;;2.47;;
52586;SDS011;38480;52.724;6.436;2022-09-09T09:51:31;9.67;;;2.63;;
52586;SDS011;38480;52.724;6.436;2022-09-09T09:54:14;7.43;;;2.50;;
52586;SDS011;38480;52.724;6.436;2022-09-09T09:56:44;8.27;;;2.03;;
52586;SDS011;38480;52.724;6.436;2022-09-09T09:59:32;10.70;;;2.73;;
52586;SDS011;38480;52.724;6.436;2022-09-09T10:04:43;7.90;;;2.60;;
52586;SDS011;38480;52.724;6.436;2022-09-09T10:07:16;11.87;;;3.23;;
52586;SDS011;38480;52.724;6.436;2022-09-09T10:09:43;5.57;;;2.07;;
52586;SDS011;38480;52.724;6.436;2022-09-09T10:12:28;13.13;;;2.30;;
52586;SDS011;38480;52.724;6.436;2022-09-09T10:17:56;8.70;;;2.40;;
52586;SDS011;38480;52.724;6.436;2022-09-09T10:22:58;6.77;;;1.80;;
52586;SDS011;38480;52.724;6.436;2022-09-09T10:36:05;7.83;;;1.70;;
52586;SDS011;38480;52.724;6.436;2022-09-09T10:46:28;9.33;;;2.30;;
52586;SDS011;38480;52.724;6.436;2022-09-09T10:54:37;7.67;;;2.10;;
52586;SDS011;38480;52.724;6.436;2022-09-09T10:57:13;8.40;;;1.90;;
52586;SDS011;38480;52.724;6.436;2022-09-09T10:59:42;9.57;;;1.97;;
52586;SDS011;38480;52.724;6.436;2022-09-09T11:04:39;7.70;;;1.90;;
52586;SDS011;38480;52.724;6.436;2022-09-09T11:07:06;7.43;;;2.13;;
52586;SDS011;38480;52.724;6.436;2022-09-09T11:09:36;8.33;;;2.00;;
52586;SDS011;38480;52.724;6.436;2022-09-09T11:12:04;10.57;;;2.00;;
52586;SDS011;38480;52.724;6.436;2022-09-09T11:17:02;9.37;;;2.10;;
52586;SDS011;38480;52.724;6.436;2022-09-09T11:19:39;10.80;;;2.00;;
52586;SDS011;38480;52.724;6.436;2022-09-09T11:22:07;11.80;;;2.00;;
52586;SDS011;38480;52.724;6.436;2022-09-09T11:24:38;6.87;;;1.87;;
52586;SDS011;38480;52.724;6.436;2022-09-09T11:27:14;8.17;;;1.80;;
52586;SDS011;38480;52.724;6.436;2022-09-09T11:34:49;5.25;;;1.52;;
52586;SDS011;38480;52.724;6.436;2022-09-09T11:37:22;6.70;;;1.70;;
52586;SDS011;38480;52.724;6.436;2022-09-09T11:42:17;9.70;;;2.17;;
52586;SDS011;38480;52.724;6.436;2022-09-09T11:44:44;5.97;;;2.23;;
52586;SDS011;38480;52.724;6.436;2022-09-09T11:47:30;10.70;;;2.23;;
52586;SDS011;38480;52.724;6.436;2022-09-09T11:52:38;7.47;;;1.73;;
52586;SDS011;38480;52.724;6.436;2022-09-09T11:55:10;9.00;;;1.83;;
52586;SDS011;38480;52.724;6.436;2022-09-09T11:57:37;7.30;;;1.80;;
52586;SDS011;38480;52.724;6.436;2022-09-09T12:00:04;7.47;;;1.73;;
52586;SDS011;38480;52.724;6.436;2022-09-09T12:02:30;7.60;;;1.63;;
52586;SDS011;38480;52.724;6.436;2022-09-09T12:05:10;8.40;;;1.40;;
52586;SDS011;38480;52.724;6.436;2022-09-09T12:07:41;7.20;;;1.50;;
52586;SDS011;38480;52.724;6.436;2022-09-09T12:12:44;5.17;;;1.53;;
52586;SDS011;38480;52.724;6.436;2022-09-09T12:17:46;4.63;;;1.47;;
52586;SDS011;38480;52.724;6.436;2022-09-09T12:20:14;7.70;;;1.23;;
52586;SDS011;38480;52.724;6.436;2022-09-09T12:28:22;7.63;;;1.50;;
52586;SDS011;38480;52.724;6.436;2022-09-09T12:33:19;4.93;;;1.70;;
52586;SDS011;38480;52.724;6.436;2022-09-09T12:35:51;8.33;;;1.30;;
52586;SDS011;38480;52.724;6.436;2022-09-09T12:38:22;8.75;;;1.92;;
52586;SDS011;38480;52.724;6.436;2022-09-09T12:40:57;5.33;;;1.47;;
52586;SDS011;38480;52.724;6.436;2022-09-09T12:43:25;7.38;;;2.80;;
52586;SDS011;38480;52.724;6.436;2022-09-09T12:45:52;7.37;;;1.77;;
52586;SDS011;38480;52.724;6.436;2022-09-09T12:48:22;8.13;;;1.93;;
52586;SDS011;38480;52.724;6.436;2022-09-09T12:50:51;4.97;;;1.27;;
52586;SDS011;38480;52.724;6.436;2022-09-09T12:56:20;4.87;;;1.30;;
52586;SDS011;38480;52.724;6.436;2022-09-09T12:58:47;6.50;;;1.57;;
52586;SDS011;38480;52.724;6.436;2022-09-09T13:01:26;6.13;;;1.37;;
52586;SDS011;38480;52.724;6.436;2022-09-09T13:03:53;4.37;;;1.20;;
52586;SDS011;38480;52.724;6.436;2022-09-09T13:06:21;6.13;;;1.30;;
52586;SDS011;38480;52.724;6.436;2022-09-09T13:08:48;5.07;;;1.67;;
52586;SDS011;38480;52.724;6.436;2022-09-09T13:11:16;6.47;;;1.27;;
52586;SDS011;38480;52.724;6.436;2022-09-09T13:13:43;6.77;;;1.60;;
52586;SDS011;38480;52.724;6.436;2022-09-09T13:16:20;6.47;;;1.50;;
52586;SDS011;38480;52.724;6.436;2022-09-09T13:18:46;7.20;;;2.03;;
52586;SDS011;38480;52.724;6.436;2022-09-09T13:21:12;6.00;;;1.00;;
52586;SDS011;38480;52.724;6.436;2022-09-09T13:23:39;3.67;;;1.10;;
52586;SDS011;38480;52.724;6.436;2022-09-09T13:26:06;5.53;;;1.50;;
52586;SDS011;38480;52.724;6.436;2022-09-09T13:28:48;3.70;;;1.45;;
52586;SDS011;38480;52.724;6.436;2022-09-09T13:33:52;7.13;;;2.30;;
52586;SDS011;38480;52.724;6.436;2022-09-09T13:36:27;5.73;;;2.10;;
52586;SDS011;38480;52.724;6.436;2022-09-09T13:38:54;6.77;;;1.90;;
52586;SDS011;38480;52.724;6.436;2022-09-09T13:41:25;5.30;;;1.53;;
52586;SDS011;38480;52.724;6.436;2022-09-09T13:43:53;6.43;;;1.70;;
52586;SDS011;38480;52.724;6.436;2022-09-09T13:46:33;4.90;;;1.40;;
52586;SDS011;38480;52.724;6.436;2022-09-09T13:49:01;5.10;;;1.33;;
52586;SDS011;38480;52.724;6.436;2022-09-09T13:51:49;8.53;;;1.40;;
52586;SDS011;38480;52.724;6.436;2022-09-09T13:54:16;6.33;;;1.10;;
52586;SDS011;38480;52.724;6.436;2022-09-09T13:56:43;5.57;;;1.23;;
52586;SDS011;38480;52.724;6.436;2022-09-09T13:59:11;3.20;;;1.10;;
52586;SDS011;38480;52.724;6.436;2022-09-09T14:01:37;3.47;;;0.90;;
52586;SDS011;38480;52.724;6.436;2022-09-09T14:04:03;3.77;;;0.90;;
52586;SDS011;38480;52.724;6.436;2022-09-09T14:06:34;5.50;;;1.03;;
52586;SDS011;38480;52.724;6.436;2022-09-09T14:09:02;2.83;;;0.70;;
52586;SDS011;38480;52.724;6.436;2022-09-09T14:11:28;3.90;;;1.00;;
52586;SDS011;38480;52.724;6.436;2022-09-09T14:13:54;2.07;;;0.93;;
52586;SDS011;38480;52.724;6.436;2022-09-09T14:16:20;4.37;;;1.10;;
52586;SDS011;38480;52.724;6.436;2022-09-09T14:18:47;5.43;;;1.00;;
52586;SDS011;38480;52.724;6.436;2022-09-09T14:21:13;4.47;;;0.80;;
52586;SDS011;38480;52.724;6.436;2022-09-09T14:23:40;6.15;;;1.45;;
52586;SDS011;38480;52.724;6.436;2022-09-09T14:26:07;3.38;;;0.98;;
52586;SDS011;38480;52.724;6.436;2022-09-09T14:28:33;3.80;;;1.35;;
52586;SDS011;38480;52.724;6.436;2022-09-09T14:31:00;2.20;;;0.65;;
52586;SDS011;38480;52.724;6.436;2022-09-09T14:33:27;2.97;;;1.00;;
52586;SDS011;38480;52.724;6.436;2022-09-09T14:36:00;4.57;;;1.33;;
52586;SDS011;38480;52.724;6.436;2022-09-09T14:38:29;4.20;;;1.10;;
52586;SDS011;38480;52.724;6.436;2022-09-09T14:40:56;3.87;;;0.80;;
52586;SDS011;38480;52.724;6.436;2022-09-09T14:43:23;3.33;;;1.20;;
52586;SDS011;38480;52.724;6.436;2022-09-09T14:45:49;2.67;;;1.07;;
52586;SDS011;38480;52.724;6.436;2022-09-09T14:48:16;5.50;;;1.10;;
52586;SDS011;38480;52.724;6.436;2022-09-09T14:50:42;3.03;;;0.80;;
52586;SDS011;38480;52.724;6.436;2022-09-09T14:53:09;3.77;;;1.10;;
52586;SDS011;38480;52.724;6.436;2022-09-09T14:55:36;4.43;;;0.80;;
52586;SDS011;38480;52.724;6.436;2022-09-09T14:58:03;5.00;;;1.37;;
52586;SDS011;38480;52.724;6.436;2022-09-09T15:00:30;2.70;;;0.80;;
52586;SDS011;38480;52.724;6.436;2022-09-09T15:02:56;4.27;;;0.90;;
52586;SDS011;38480;52.724;6.436;2022-09-09T15:05:22;2.77;;;1.20;;
52586;SDS011;38480;52.724;6.436;2022-09-09T15:07:49;4.77;;;1.10;;
52586;SDS011;38480;52.724;6.436;2022-09-09T15:10:15;4.10;;;1.33;;
52586;SDS011;38480;52.724;6.436;2022-09-09T15:12:42;3.40;;;0.80;;
52586;SDS011;38480;52.724;6.436;2022-09-09T15:15:08;3.23;;;1.00;;
52586;SDS011;38480;52.724;6.436;2022-09-09T15:17:35;2.53;;;0.70;;
52586;SDS011;38480;52.724;6.436;2022-09-09T15:20:02;4.17;;;1.10;;
52586;SDS011;38480;52.724;6.436;2022-09-09T15:22:30;7.17;;;1.20;;
52586;SDS011;38480;52.724;6.436;2022-09-09T15:24:56;4.97;;;1.60;;
52586;SDS011;38480;52.724;6.436;2022-09-09T15:27:22;4.33;;;1.07;;
52586;SDS011;38480;52.724;6.436;2022-09-09T15:29:49;2.73;;;0.97;;
52586;SDS011;38480;52.724;6.436;2022-09-09T15:32:16;5.10;;;1.30;;
52586;SDS011;38480;52.724;6.436;2022-09-09T15:34:42;6.10;;;1.37;;
52586;SDS011;38480;52.724;6.436;2022-09-09T15:37:09;6.00;;;1.60;;
52586;SDS011;38480;52.724;6.436;2022-09-09T15:39:38;5.13;;;1.80;;
52586;SDS011;38480;52.724;6.436;2022-09-09T15:42:04;2.93;;;1.27;;
52586;SDS011;38480;52.724;6.436;2022-09-09T15:44:38;5.90;;;1.90;;
52586;SDS011;38480;52.724;6.436;2022-09-09T15:47:04;4.20;;;1.40;;
52586;SDS011;38480;52.724;6.436;2022-09-09T15:49:30;6.23;;;1.30;;
52586;SDS011;38480;52.724;6.436;2022-09-09T15:51:59;6.13;;;1.40;;
52586;SDS011;38480;52.724;6.436;2022-09-09T15:54:30;3.33;;;1.10;;
52586;SDS011;38480;52.724;6.436;2022-09-09T15:56:58;5.83;;;1.60;;
52586;SDS011;38480;52.724;6.436;2022-09-09T15:59:25;6.37;;;1.83;;
52586;SDS011;38480;52.724;6.436;2022-09-09T16:01:52;4.47;;;1.23;;
52586;SDS011;38480;52.724;6.436;2022-09-09T16:04:18;4.27;;;1.53;;
52586;SDS011;38480;52.724;6.436;2022-09-09T16:06:49;5.10;;;1.30;;
52586;SDS011;38480;52.724;6.436;2022-09-09T16:09:15;7.17;;;1.20;;
52586;SDS011;38480;52.724;6.436;2022-09-09T16:11:41;4.17;;;1.20;;
52586;SDS011;38480;52.724;6.436;2022-09-09T16:14:07;3.97;;;1.10;;
52586;SDS011;38480;52.724;6.436;2022-09-09T16:16:34;4.00;;;1.30;;
52586;SDS011;38480;52.724;6.436;2022-09-09T16:19:03;3.60;;;1.20;;
52586;SDS011;38480;52.724;6.436;2022-09-09T16:21:34;3.43;;;1.23;;
52586;SDS011;38480;52.724;6.436;2022-09-09T16:24:02;3.53;;;1.93;;
52586;SDS011;38480;52.724;6.436;2022-09-09T16:26:29;5.10;;;1.47;;
52586;SDS011;38480;52.724;6.436;2022-09-09T16:28:56;3.77;;;1.93;;
52586;SDS011;38480;52.724;6.436;2022-09-09T16:31:26;5.60;;;1.70;;
52586;SDS011;38480;52.724;6.436;2022-09-09T16:33:52;6.13;;;1.73;;
52586;SDS011;38480;52.724;6.436;2022-09-09T16:36:22;7.67;;;1.77;;
52586;SDS011;38480;52.724;6.436;2022-09-09T16:38:52;4.60;;;1.77;;